Time;durP1;ratioP1;P1;durP2;ratioP2;P2;SDS_P1;SDS_P2;PMS_P1;PMS_P2;Temp;Humidity;BMP_temperature;BMP_pressure;BME280_temperature;BME280_humidity;BME280_pressure;Samples;Min_cycle;Max_cycle;Signal;HPM_P1;HPM_P2
2021/04/18 00:00:41;;;;;;;;;;;6.40;60.00;;;;;;4938380;29;20385;-89
2021/04/18 00:03:07;;;;;;;;;;;6.40;60.20;;;;;;4946388;29;19911;-88
2021/04/18 00:05:32;;;;;;;;;;;6.30;60.30;;;;;;4935059;29;19990;-88
2021/04/18 00:08:04;;;;;;;;;;;6.30;60.70;;;;;;4941144;29;19966;-88
2021/04/18 00:10:30;;;;;;;;;;;6.30;61.00;;;;;;4920877;29;20354;-87
2021/04/18 00:12:56;;;;;;;;;;;6.20;61.80;;;;;;4922408;29;20039;-87
2021/04/18 00:15:22;;;;;;;;;;;6.20;61.20;;;;;;4941029;28;19949;-87
2021/04/18 00:17:47;;;;;;;;;;;6.20;61.40;;;;;;4933155;29;19913;-87
2021/04/18 00:20:13;;;;;;;;;;;6.20;61.40;;;;;;4935151;29;19953;-88
2021/04/18 00:22:39;;;;;;;;;;;6.10;61.70;;;;;;4947763;28;20400;-87
2021/04/18 00:25:05;;;;;;;;;;;6.10;61.80;;;;;;4931739;29;19926;-87
2021/04/18 00:27:30;;;;;;;;;;;6.10;62.00;;;;;;4939367;29;19906;-87
2021/04/18 00:29:56;;;;;;;;;;;6.10;62.00;;;;;;4934738;29;19962;-89
2021/04/18 00:32:22;;;;;;;;;;;6.10;62.10;;;;;;4946126;28;19918;-89
2021/04/18 00:34:47;;;;;;;;;;;6.10;62.10;;;;;;4934872;29;19953;-89
2021/04/18 00:37:12;;;;;;;;;;;6.00;62.50;;;;;;4935681;29;19914;-87
2021/04/18 00:39:40;;;;;;;;;;;6.00;62.70;;;;;;4928515;29;19945;-89
2021/04/18 00:42:06;;;;;;;;;;;6.00;62.90;;;;;;4943126;29;19914;-89
2021/04/18 00:44:31;;;;;;;;;;;6.00;62.90;;;;;;4930594;29;19921;-89
2021/04/18 00:46:57;;;;;;;;;;;6.00;62.90;;;;;;4936032;29;19919;-89
2021/04/18 00:49:22;;;;;;;;;;;6.00;63.00;;;;;;4935335;29;20001;-89
2021/04/18 00:51:48;;;;;;;;;;;6.00;63.00;;;;;;4954527;28;19906;-89
2021/04/18 00:54:13;;;;;;;;;;;6.00;63.10;;;;;;4934753;28;19914;-89
2021/04/18 00:56:38;;;;;;;;;;;6.10;63.10;;;;;;4945784;28;19962;-88
2021/04/18 00:59:04;;;;;;;;;;;6.10;62.90;;;;;;4930245;29;19907;-89
2021/04/18 01:01:29;;;;;;;;;;;6.00;62.90;;;;;;4949871;29;20008;-89
2021/04/18 01:03:55;;;;;;;;;;;6.00;62.90;;;;;;4934540;29;19910;-89
2021/04/18 01:06:20;;;;;;;;;;;6.00;63.00;;;;;;4944276;28;19918;-88
2021/04/18 01:08:46;;;;;;;;;;;6.00;63.00;;;;;;4933430;29;19930;-89
2021/04/18 01:11:11;;;;;;;;;;;5.90;63.00;;;;;;4933138;29;19954;-88
2021/04/18 01:13:37;;;;;;;;;;;5.90;63.10;;;;;;4929208;29;20027;-87
2021/04/18 01:16:02;;;;;;;;;;;5.90;63.20;;;;;;4939985;28;19930;-87
2021/04/18 01:18:28;;;;;;;;;;;5.90;63.40;;;;;;4937741;29;20285;-88
2021/04/18 01:21:06;;;;;;;;;;;5.90;63.30;;;;;;4934112;29;19959;-88
2021/04/18 01:23:32;;;;;;;;;;;5.90;63.40;;;;;;4934128;29;20255;-87
2021/04/18 01:25:57;;;;;;;;;;;5.90;63.40;;;;;;4930127;28;20001;-88
2021/04/18 01:28:23;;;;;;;;;;;5.90;63.40;;;;;;4932341;29;19915;-87
2021/04/18 01:30:48;;;;;;;;;;;5.90;63.70;;;;;;4934058;29;19911;-88
2021/04/18 01:33:14;;;;;;;;;;;5.90;63.90;;;;;;4933661;29;20350;-87
2021/04/18 01:35:41;;;;;;;;;;;5.90;63.80;;;;;;4925596;28;19910;-90
2021/04/18 01:38:09;;;;;;;;;;;6.00;63.80;;;;;;4928454;29;19911;-87
2021/04/18 01:40:34;;;;;;;;;;;6.00;63.80;;;;;;4932876;29;19911;-87
2021/04/18 01:42:59;;;;;;;;;;;6.00;63.90;;;;;;4936044;29;19907;-88
2021/04/18 01:45:26;;;;;;;;;;;6.00;64.10;;;;;;4934527;28;19965;-87
2021/04/18 01:47:51;;;;;;;;;;;5.90;64.20;;;;;;4942294;29;19914;-88
2021/04/18 01:50:17;;;;;;;;;;;5.90;64.30;;;;;;4929559;29;19910;-88
2021/04/18 01:52:43;;;;;;;;;;;5.90;64.40;;;;;;4938133;28;20358;-88
2021/04/18 01:55:09;;;;;;;;;;;5.80;64.50;;;;;;4932819;29;19926;-88
2021/04/18 01:57:35;;;;;;;;;;;5.80;64.60;;;;;;4949053;28;19960;-89
2021/04/18 02:00:00;;;;;;;;;;;5.80;64.80;;;;;;4933965;29;19919;-88
2021/04/18 02:02:26;;;;;;;;;;;5.80;64.90;;;;;;4942289;29;19933;-89
2021/04/18 02:04:52;;;;;;;;;;;5.80;65.00;;;;;;4923004;29;20274;-87
2021/04/18 02:07:17;;;;;;;;;;;5.70;65.00;;;;;;4929813;29;19997;-88
2021/04/18 02:09:43;;;;;;;;;;;5.70;65.00;;;;;;4923487;29;20390;-88
2021/04/18 02:12:09;;;;;;;;;;;5.60;64.80;;;;;;4937529;29;19915;-89
2021/04/18 02:14:35;;;;;;;;;;;5.50;64.90;;;;;;4933173;29;19917;-89
2021/04/18 02:17:03;;;;;;;;;;;5.50;64.90;;;;;;4935492;29;19996;-89
2021/04/18 02:19:29;;;;;;;;;;;5.50;65.00;;;;;;4929299;29;20358;-89
2021/04/18 02:21:55;;;;;;;;;;;5.50;65.00;;;;;;4935774;29;19922;-88
2021/04/18 02:24:20;;;;;;;;;;;5.40;65.00;;;;;;4935894;29;19915;-86
2021/04/18 02:26:46;;;;;;;;;;;5.40;65.00;;;;;;4934751;29;19914;-88
2021/04/18 02:29:11;;;;;;;;;;;5.40;65.10;;;;;;4931822;29;19911;-88
2021/04/18 02:31:37;;;;;;;;;;;5.40;65.10;;;;;;4941687;29;19910;-88
2021/04/18 02:34:02;;;;;;;;;;;5.40;65.20;;;;;;4933880;29;19911;-86
2021/04/18 02:36:28;;;;;;;;;;;5.40;65.30;;;;;;4929354;29;19946;-88
2021/04/18 02:38:53;;;;;;;;;;;5.30;65.40;;;;;;4934289;29;19918;-87
2021/04/18 02:41:19;;;;;;;;;;;5.30;65.80;;;;;;4934651;29;20362;-88
2021/04/18 02:43:44;;;;;;;;;;;5.20;66.00;;;;;;4931618;29;19911;-87
2021/04/18 02:46:10;;;;;;;;;;;5.20;66.30;;;;;;4931558;29;19934;-87
2021/04/18 02:48:35;;;;;;;;;;;5.10;66.50;;;;;;4934084;29;20270;-86
2021/04/18 02:51:01;;;;;;;;;;;5.10;66.60;;;;;;4948633;28;20359;-87
2021/04/18 02:53:27;;;;;;;;;;;5.10;66.60;;;;;;4947058;29;19965;-88
2021/04/18 02:55:52;;;;;;;;;;;5.10;66.80;;;;;;4932450;29;19910;-86
2021/04/18 02:58:18;;;;;;;;;;;5.00;66.90;;;;;;4921545;29;20040;-87
2021/04/18 03:00:43;;;;;;;;;;;5.00;66.90;;;;;;4932897;29;20266;-87
2021/04/18 03:03:09;;;;;;;;;;;5.00;67.10;;;;;;4944927;29;19910;-88
2021/04/18 03:05:34;;;;;;;;;;;5.00;67.20;;;;;;4932775;29;19950;-86
2021/04/18 03:08:00;;;;;;;;;;;5.00;67.30;;;;;;4930119;29;20022;-88
2021/04/18 03:10:27;;;;;;;;;;;5.00;67.70;;;;;;4925644;29;21339;-88
2021/04/18 03:12:53;;;;;;;;;;;5.00;67.90;;;;;;4936107;28;20609;-88
2021/04/18 03:15:19;;;;;;;;;;;4.90;67.90;;;;;;4931430;29;20390;-88
2021/04/18 03:17:44;;;;;;;;;;;4.90;68.00;;;;;;4932903;29;19918;-87
2021/04/18 03:20:10;;;;;;;;;;;4.90;68.00;;;;;;4932065;29;19911;-87
2021/04/18 03:22:36;;;;;;;;;;;4.90;68.00;;;;;;4950084;28;19907;-87
2021/04/18 03:25:02;;;;;;;;;;;5.00;68.00;;;;;;4932759;28;20005;-88
2021/04/18 03:27:28;;;;;;;;;;;5.00;67.90;;;;;;4930337;29;19911;-87
2021/04/18 03:29:53;;;;;;;;;;;5.00;67.90;;;;;;4932506;28;19977;-85
2021/04/18 03:32:19;;;;;;;;;;;5.00;68.00;;;;;;4940108;29;19955;-87
2021/04/18 03:34:45;;;;;;;;;;;4.90;68.10;;;;;;4934118;29;19911;-87
2021/04/18 03:37:13;;;;;;;;;;;5.00;68.20;;;;;;4928742;29;19942;-88
2021/04/18 03:39:40;;;;;;;;;;;5.00;68.40;;;;;;4944711;29;19917;-88
2021/04/18 03:42:05;;;;;;;;;;;5.00;68.60;;;;;;4939378;29;19911;-90
2021/04/18 03:44:31;;;;;;;;;;;5.00;68.70;;;;;;4933461;29;19959;-87
2021/04/18 03:46:56;;;;;;;;;;;5.00;68.90;;;;;;4934981;29;19919;-87
2021/04/18 03:49:22;;;;;;;;;;;5.00;68.90;;;;;;4936985;29;19911;-89
2021/04/18 03:51:47;;;;;;;;;;;4.90;68.90;;;;;;4936358;29;19915;-89
2021/04/18 03:54:13;;;;;;;;;;;5.00;69.00;;;;;;4934244;29;20073;-88
2021/04/18 03:56:38;;;;;;;;;;;4.90;68.90;;;;;;4932351;29;20457;-89
2021/04/18 03:59:04;;;;;;;;;;;5.00;68.90;;;;;;4938472;29;19917;-88
2021/04/18 04:01:29;;;;;;;;;;;4.90;69.00;;;;;;4947428;28;19915;-90
2021/04/18 04:03:55;;;;;;;;;;;4.90;69.10;;;;;;4947463;29;19911;-89
2021/04/18 04:06:21;;;;;;;;;;;4.90;69.10;;;;;;4936479;29;19966;-88
2021/04/18 04:08:47;;;;;;;;;;;4.80;69.20;;;;;;4937341;29;19915;-90
2021/04/18 04:11:12;;;;;;;;;;;4.90;69.20;;;;;;4936329;29;19997;-89
2021/04/18 04:13:38;;;;;;;;;;;4.80;69.40;;;;;;4937926;29;19914;-88
2021/04/18 04:16:03;;;;;;;;;;;4.80;69.50;;;;;;4949444;28;19970;-88
2021/04/18 04:18:29;;;;;;;;;;;4.70;69.50;;;;;;4936209;29;20049;-91
2021/04/18 04:20:54;;;;;;;;;;;4.70;69.70;;;;;;4935838;29;19961;-91
2021/04/18 04:23:19;;;;;;;;;;;4.60;69.80;;;;;;4934763;29;19907;-86
2021/04/18 04:25:45;;;;;;;;;;;4.50;70.10;;;;;;4933543;29;20358;-88
2021/04/18 04:28:12;;;;;;;;;;;4.40;70.20;;;;;;4933240;29;20428;-88
2021/04/18 04:30:38;;;;;;;;;;;4.40;70.40;;;;;;4933921;29;19919;-87
2021/04/18 04:33:03;;;;;;;;;;;4.30;70.40;;;;;;4940299;29;20017;-88
2021/04/18 04:35:29;;;;;;;;;;;4.30;70.30;;;;;;4948088;28;19910;-88
2021/04/18 04:37:54;;;;;;;;;;;4.20;70.40;;;;;;4937876;29;19942;-87
2021/04/18 04:40:20;;;;;;;;;;;4.20;70.60;;;;;;4933718;29;20331;-88
2021/04/18 04:42:45;;;;;;;;;;;4.20;70.70;;;;;;4935695;29;19918;-88
2021/04/18 04:45:11;;;;;;;;;;;4.10;70.70;;;;;;4921482;29;19922;-87
2021/04/18 04:47:38;;;;;;;;;;;4.10;70.70;;;;;;4934163;29;20315;-86
2021/04/18 04:50:03;;;;;;;;;;;4.20;70.80;;;;;;4938369;29;19918;-88
2021/04/18 04:52:29;;;;;;;;;;;4.10;70.70;;;;;;4943599;29;19986;-87
2021/04/18 04:54:54;;;;;;;;;;;4.10;70.60;;;;;;4942986;28;19941;-86
2021/04/18 04:57:20;;;;;;;;;;;4.10;70.60;;;;;;4935832;29;20393;-88
2021/04/18 04:59:45;;;;;;;;;;;4.20;70.50;;;;;;4933094;29;19911;-87
2021/04/18 05:02:10;;;;;;;;;;;4.20;70.50;;;;;;4941011;29;19974;-87
2021/04/18 05:04:36;;;;;;;;;;;4.20;70.40;;;;;;4932019;28;19968;-86
2021/04/18 05:07:01;;;;;;;;;;;4.20;70.90;;;;;;4944134;29;20304;-87
2021/04/18 05:09:27;;;;;;;;;;;4.30;70.10;;;;;;4934775;29;19918;-86
2021/04/18 05:11:54;;;;;;;;;;;4.30;70.00;;;;;;4930202;29;19911;-86
2021/04/18 05:14:19;;;;;;;;;;;4.40;70.00;;;;;;4927737;29;19961;-86
2021/04/18 05:16:45;;;;;;;;;;;4.40;69.80;;;;;;4933619;29;20009;-86
2021/04/18 05:19:10;;;;;;;;;;;4.50;69.70;;;;;;4930399;29;19910;-85
2021/04/18 05:21:36;;;;;;;;;;;4.60;69.60;;;;;;4939177;29;19965;-86
2021/04/18 05:24:01;;;;;;;;;;;4.70;69.50;;;;;;4932963;29;19927;-86
2021/04/18 05:26:27;;;;;;;;;;;4.80;69.40;;;;;;4930673;29;19926;-86
2021/04/18 05:28:53;;;;;;;;;;;4.90;69.40;;;;;;4925685;29;19933;-86
2021/04/18 05:31:19;;;;;;;;;;;5.30;69.60;;;;;;4931532;29;19911;-87
2021/04/18 05:33:45;;;;;;;;;;;6.40;68.30;;;;;;4932493;29;19933;-85
2021/04/18 05:36:11;;;;;;;;;;;7.40;66.10;;;;;;4933710;29;19981;-87
2021/04/18 05:38:37;;;;;;;;;;;8.40;63.90;;;;;;4928028;29;19958;-87
2021/04/18 05:41:02;;;;;;;;;;;9.30;62.00;;;;;;4943010;29;19934;-87
2021/04/18 05:43:27;;;;;;;;;;;10.10;60.00;;;;;;4920430;28;19911;-87
2021/04/18 05:45:53;;;;;;;;;;;10.90;58.50;;;;;;4923786;29;19926;-87
2021/04/18 05:48:19;;;;;;;;;;;11.60;57.10;;;;;;4931139;29;19917;-86
2021/04/18 05:50:45;;;;;;;;;;;12.00;56.20;;;;;;4936802;29;19917;-88
2021/04/18 05:53:11;;;;;;;;;;;12.30;55.60;;;;;;4932189;29;19968;-88
2021/04/18 05:55:37;;;;;;;;;;;12.80;55.00;;;;;;4939241;28;20022;-87
2021/04/18 05:58:03;;;;;;;;;;;13.30;54.30;;;;;;4925476;29;19915;-88
2021/04/18 06:00:28;;;;;;;;;;;13.80;53.40;;;;;;4936911;29;20433;-88
2021/04/18 06:02:54;;;;;;;;;;;14.20;52.70;;;;;;4945906;29;19914;-88
2021/04/18 06:05:19;;;;;;;;;;;14.60;51.80;;;;;;4938558;29;19919;-88
2021/04/18 06:07:45;;;;;;;;;;;15.00;51.10;;;;;;4918200;28;19915;-87
2021/04/18 06:10:10;;;;;;;;;;;15.60;50.10;;;;;;4933081;29;19918;-88
2021/04/18 06:12:36;;;;;;;;;;;16.10;49.20;;;;;;4943402;29;19953;-88
2021/04/18 06:15:01;;;;;;;;;;;16.40;48.00;;;;;;4937604;29;19914;-87
2021/04/18 06:17:27;;;;;;;;;;;16.70;47.90;;;;;;4927677;29;19922;-88
2021/04/18 06:19:52;;;;;;;;;;;17.00;47.50;;;;;;4932461;29;19965;-89
2021/04/18 06:22:18;;;;;;;;;;;17.30;47.00;;;;;;4933115;29;19926;-89
2021/04/18 06:24:44;;;;;;;;;;;17.60;46.00;;;;;;4935761;29;20569;-91
2021/04/18 06:27:09;;;;;;;;;;;17.90;45.80;;;;;;4935605;29;19919;-90
2021/04/18 06:29:35;;;;;;;;;;;18.20;44.90;;;;;;4934721;29;20473;-90
2021/04/18 06:32:02;;;;;;;;;;;18.50;44.40;;;;;;4933715;29;19982;-93
2021/04/18 06:34:27;;;;;;;;;;;18.60;43.60;;;;;;4940946;28;19910;-89
2021/04/18 06:36:52;;;;;;;;;;;18.30;44.00;;;;;;4938003;29;19917;-90
2021/04/18 06:39:18;;;;;;;;;;;17.70;44.10;;;;;;4927945;29;19918;-88
2021/04/18 06:41:52;;;;;;;;;;;16.70;45.50;;;;;;4940301;29;19933;-87
2021/04/18 06:44:18;;;;;;;;;;;15.70;46.90;;;;;;4924471;29;20446;-90
2021/04/18 06:46:43;;;;;;;;;;;14.60;48.80;;;;;;4934697;29;20014;-88
2021/04/18 06:49:10;;;;;;;;;;;13.70;50.70;;;;;;4933615;29;19915;-91
2021/04/18 06:51:38;;;;;;;;;;;13.20;52.10;;;;;;4936753;29;20049;-88
2021/04/18 06:54:04;;;;;;;;;;;12.90;53.20;;;;;;4937865;29;19914;-87
2021/04/18 06:56:30;;;;;;;;;;;12.70;53.40;;;;;;4925193;29;19917;-90
2021/04/18 06:58:57;;;;;;;;;;;12.50;53.80;;;;;;4915893;29;20010;-88
2021/04/18 07:01:22;;;;;;;;;;;12.40;54.00;;;;;;4933554;29;19918;-85
2021/04/18 07:04:06;;;;;;;;;;;12.20;54.40;;;;;;4935793;28;20331;-96
2021/04/18 07:06:41;;;;;;;;;;;12.10;54.80;;;;;;4948423;28;19965;-91
2021/04/18 07:09:06;;;;;;;;;;;11.90;55.00;;;;;;4931136;29;20378;-91
2021/04/18 07:11:45;;;;;;;;;;;11.70;55.30;;;;;;4935845;29;19911;-89
2021/04/18 07:14:24;;;;;;;;;;;11.80;55.40;;;;;;4935687;29;19907;-89
2021/04/18 07:16:51;;;;;;;;;;;13.00;54.00;;;;;;4937748;29;19925;-90
2021/04/18 07:19:24;;;;;;;;;;;15.20;50.20;;;;;;4947035;29;19919;-90
2021/04/18 07:21:51;;;;;;;;;;;16.70;47.10;;;;;;4950303;29;19954;-90
2021/04/18 07:24:17;;;;;;;;;;;17.90;44.90;;;;;;4936524;28;19942;-90
2021/04/18 07:26:43;;;;;;;;;;;18.80;43.20;;;;;;4938406;29;20304;-88
2021/04/18 07:29:12;;;;;;;;;;;19.50;42.10;;;;;;4944695;29;19914;-90
2021/04/18 07:31:37;;;;;;;;;;;20.00;40.90;;;;;;4963697;28;20262;-89
2021/04/18 07:34:07;;;;;;;;;;;20.40;39.90;;;;;;4943819;28;19917;-89
2021/04/18 07:36:34;;;;;;;;;;;20.60;39.50;;;;;;4942804;29;19918;-93
2021/04/18 07:38:59;;;;;;;;;;;20.50;39.00;;;;;;4948261;29;19913;-92
2021/04/18 07:41:25;;;;;;;;;;;19.80;39.40;;;;;;4938692;29;20274;-94
2021/04/18 07:43:50;;;;;;;;;;;19.90;39.90;;;;;;4934342;29;19987;-95
2021/04/18 07:46:16;;;;;;;;;;;20.40;38.80;;;;;;4937972;29;19919;-92
2021/04/18 07:48:43;;;;;;;;;;;20.80;38.50;;;;;;4935448;29;19914;-91
2021/04/18 07:51:09;;;;;;;;;;;20.40;38.70;;;;;;4924263;29;19938;-89
2021/04/18 07:53:34;;;;;;;;;;;20.20;38.90;;;;;;4937697;29;19914;-89
2021/04/18 07:56:00;;;;;;;;;;;20.20;38.90;;;;;;4939023;29;19961;-89
2021/04/18 07:58:25;;;;;;;;;;;19.70;39.40;;;;;;4941815;29;19911;-92
2021/04/18 08:00:51;;;;;;;;;;;18.90;40.20;;;;;;4944736;29;19910;-91
2021/04/18 08:03:19;;;;;;;;;;;17.50;41.50;;;;;;4955232;28;19934;-91
2021/04/18 08:05:45;;;;;;;;;;;16.90;43.10;;;;;;4938752;29;19925;-89
2021/04/18 08:08:14;;;;;;;;;;;17.20;43.00;;;;;;4936728;29;20002;-91
2021/04/18 08:10:50;;;;;;;;;;;17.50;42.20;;;;;;4935627;29;20014;-90
2021/04/18 08:13:15;;;;;;;;;;;16.90;42.50;;;;;;4921094;28;19917;-90
2021/04/18 08:15:53;;;;;;;;;;;16.10;43.80;;;;;;4938880;29;19910;-89
2021/04/18 08:18:26;;;;;;;;;;;15.80;44.50;;;;;;4929833;29;19915;-91
2021/04/18 08:20:52;;;;;;;;;;;16.50;44.20;;;;;;4937111;28;19917;-89
2021/04/18 08:23:17;;;;;;;;;;;17.40;42.20;;;;;;4923324;29;19911;-89
2021/04/18 08:26:02;;;;;;;;;;;17.70;41.50;;;;;;4940811;28;19918;-90
2021/04/18 08:28:27;;;;;;;;;;;18.20;41.30;;;;;;4955058;28;19933;-90
2021/04/18 08:31:04;;;;;;;;;;;18.30;40.60;;;;;;4935971;29;20362;-89
2021/04/18 08:33:38;;;;;;;;;;;18.50;40.70;;;;;;4938215;29;20378;-90
2021/04/18 08:36:16;;;;;;;;;;;18.70;40.50;;;;;;4951261;28;19921;-90
2021/04/18 08:38:42;;;;;;;;;;;17.80;41.20;;;;;;4950524;28;19918;-89
2021/04/18 08:41:15;;;;;;;;;;;16.90;42.60;;;;;;4936040;29;19907;-90
2021/04/18 08:43:45;;;;;;;;;;;16.50;43.10;;;;;;4934461;29;19911;-89
2021/04/18 08:46:10;;;;;;;;;;;16.30;43.90;;;;;;4942210;29;20018;-90
2021/04/18 08:48:36;;;;;;;;;;;16.10;44.50;;;;;;4935486;29;20365;-88
2021/04/18 08:51:03;;;;;;;;;;;16.00;44.80;;;;;;4935486;29;19907;-88
2021/04/18 08:53:49;;;;;;;;;;;15.60;45.00;;;;;;4937144;29;19918;-89
2021/04/18 08:56:14;;;;;;;;;;;15.40;45.30;;;;;;4948475;28;19953;-89
2021/04/18 08:58:39;;;;;;;;;;;15.20;45.70;;;;;;4934597;29;20001;-89
2021/04/18 09:01:06;;;;;;;;;;;15.00;45.90;;;;;;4934351;29;19918;-89
2021/04/18 09:03:32;;;;;;;;;;;14.90;45.90;;;;;;4935098;29;20005;-89
2021/04/18 09:06:27;;;;;;;;;;;14.80;46.00;;;;;;4934185;29;19958;-89
2021/04/18 09:08:53;;;;;;;;;;;14.80;46.20;;;;;;4933355;29;19914;-90
2021/04/18 09:11:19;;;;;;;;;;;14.80;46.20;;;;;;4933947;29;20463;-88
2021/04/18 09:13:55;;;;;;;;;;;14.90;46.20;;;;;;4935207;29;19911;-88
2021/04/18 09:16:21;;;;;;;;;;;15.00;46.20;;;;;;4936140;29;19907;-90
2021/04/18 09:18:47;;;;;;;;;;;15.00;45.60;;;;;;4931338;29;19974;-89
2021/04/18 09:21:13;;;;;;;;;;;15.10;45.50;;;;;;4937552;29;20524;-90
2021/04/18 09:23:56;;;;;;;;;;;15.00;44.50;;;;;;4929791;29;20354;-89
2021/04/18 09:26:21;;;;;;;;;;;15.00;44.70;;;;;;4937855;29;20366;-88
2021/04/18 09:29:06;;;;;;;;;;;15.10;44.80;;;;;;4936056;29;19915;-88
2021/04/18 09:31:31;;;;;;;;;;;15.10;44.40;;;;;;4961445;28;20374;-89
2021/04/18 09:34:06;;;;;;;;;;;15.20;44.40;;;;;;4933757;29;19910;-89
2021/04/18 09:36:32;;;;;;;;;;;15.20;43.90;;;;;;4945328;29;20304;-88
2021/04/18 09:38:58;;;;;;;;;;;15.10;43.50;;;;;;4943074;29;19914;-90
2021/04/18 09:41:26;;;;;;;;;;;15.20;43.60;;;;;;4940433;29;19911;-88
2021/04/18 09:43:59;;;;;;;;;;;15.40;43.30;;;;;;4934211;29;19910;-91
2021/04/18 09:46:24;;;;;;;;;;;15.60;43.10;;;;;;4939639;29;20023;-90
2021/04/18 09:48:57;;;;;;;;;;;15.60;42.40;;;;;;4937958;29;20386;-87
2021/04/18 09:51:22;;;;;;;;;;;15.70;42.20;;;;;;4937374;29;19918;-90
2021/04/18 09:54:01;;;;;;;;;;;15.80;42.00;;;;;;4932655;29;19915;-90
2021/04/18 09:56:27;;;;;;;;;;;15.90;41.60;;;;;;4933734;29;20574;-90
2021/04/18 09:58:53;;;;;;;;;;;16.00;41.30;;;;;;4942471;29;20009;-91
2021/04/18 10:01:26;;;;;;;;;;;16.10;41.50;;;;;;4939638;29;19913;-92
2021/04/18 10:03:51;;;;;;;;;;;16.20;41.30;;;;;;4943574;28;20416;-92
2021/04/18 10:06:17;;;;;;;;;;;16.30;40.90;;;;;;4935974;29;19922;-94
2021/04/18 10:08:52;;;;;;;;;;;16.30;40.80;;;;;;4939167;29;19934;-92
2021/04/18 10:11:19;;;;;;;;;;;16.40;40.90;;;;;;4942384;29;19910;-93
2021/04/18 10:13:49;;;;;;;;;;;16.40;40.90;;;;;;4940384;29;19925;-92
2021/04/18 10:16:16;;;;;;;;;;;16.50;41.10;;;;;;4937515;29;20222;-91
2021/04/18 10:19:03;;;;;;;;;;;16.60;41.00;;;;;;4935930;29;19915;-89
2021/04/18 10:21:30;;;;;;;;;;;16.50;40.90;;;;;;4929440;29;19910;-90
2021/04/18 10:23:55;;;;;;;;;;;16.40;40.80;;;;;;4932619;29;19918;-90
2021/04/18 10:26:21;;;;;;;;;;;16.30;41.00;;;;;;4936199;29;20452;-89
2021/04/18 10:28:52;;;;;;;;;;;16.30;41.30;;;;;;4934090;29;19910;-90
2021/04/18 10:31:18;;;;;;;;;;;16.20;41.70;;;;;;4936652;29;20361;-92
2021/04/18 10:33:44;;;;;;;;;;;16.20;41.90;;;;;;4934642;29;19919;-92
2021/04/18 10:36:11;;;;;;;;;;;16.30;42.20;;;;;;4928972;29;19917;-91
2021/04/18 10:38:36;;;;;;;;;;;16.40;42.50;;;;;;4934295;29;19911;-91
2021/04/18 10:41:02;;;;;;;;;;;16.50;42.60;;;;;;4935356;29;19911;-90
2021/04/18 10:43:28;;;;;;;;;;;16.50;42.60;;;;;;4933019;29;19919;-90
2021/04/18 10:45:53;;;;;;;;;;;16.30;42.50;;;;;;4936779;29;19925;-91
2021/04/18 10:48:19;;;;;;;;;;;16.30;42.80;;;;;;4932447;29;19910;-89
2021/04/18 10:50:45;;;;;;;;;;;16.30;43.10;;;;;;4941257;29;19918;-90
2021/04/18 10:53:11;;;;;;;;;;;16.30;43.10;;;;;;4934570;29;19922;-89
2021/04/18 10:55:36;;;;;;;;;;;16.10;43.50;;;;;;4947568;29;19958;-90
2021/04/18 10:58:02;;;;;;;;;;;16.10;43.80;;;;;;4940687;28;19911;-90
2021/04/18 11:00:28;;;;;;;;;;;16.10;43.90;;;;;;4941893;29;19926;-90
2021/04/18 11:02:54;;;;;;;;;;;16.10;44.10;;;;;;4940061;29;19911;-92
2021/04/18 11:05:19;;;;;;;;;;;16.20;44.20;;;;;;4949374;29;20341;-89
2021/04/18 11:07:45;;;;;;;;;;;16.20;44.30;;;;;;4941517;29;20017;-88
2021/04/18 11:10:11;;;;;;;;;;;16.30;44.40;;;;;;4942020;29;19971;-89
2021/04/18 11:12:36;;;;;;;;;;;16.50;44.30;;;;;;4944740;28;19934;-89
2021/04/18 11:15:02;;;;;;;;;;;16.80;44.10;;;;;;4947670;28;19914;-89
2021/04/18 11:17:28;;;;;;;;;;;17.10;43.90;;;;;;4940858;29;19945;-90
2021/04/18 11:19:53;;;;;;;;;;;17.20;43.50;;;;;;4941309;29;19946;-89
2021/04/18 11:22:19;;;;;;;;;;;17.40;43.30;;;;;;4942196;29;19911;-89
2021/04/18 11:24:45;;;;;;;;;;;17.40;42.80;;;;;;4950033;29;19910;-89
2021/04/18 11:27:10;;;;;;;;;;;17.40;42.90;;;;;;4944236;28;19915;-89
2021/04/18 11:29:37;;;;;;;;;;;17.40;42.90;;;;;;4941073;28;19911;-90
2021/04/18 11:32:04;;;;;;;;;;;17.50;42.80;;;;;;4947161;28;19953;-89
2021/04/18 11:34:29;;;;;;;;;;;17.70;42.60;;;;;;4943838;29;19914;-90
2021/04/18 11:36:55;;;;;;;;;;;17.80;42.40;;;;;;4954234;29;19949;-91
2021/04/18 11:39:20;;;;;;;;;;;18.00;42.20;;;;;;4944706;29;19919;-90
2021/04/18 11:41:46;;;;;;;;;;;18.10;42.10;;;;;;4949472;28;19966;-90
2021/04/18 11:44:14;;;;;;;;;;;18.10;41.80;;;;;;4946132;28;19946;-94
2021/04/18 11:46:40;;;;;;;;;;;18.20;41.60;;;;;;4948385;29;19926;-91
2021/04/18 11:49:07;;;;;;;;;;;18.30;41.40;;;;;;4948100;29;19917;-91
2021/04/18 11:51:35;;;;;;;;;;;18.40;41.10;;;;;;4936824;29;19989;-89
2021/04/18 11:54:01;;;;;;;;;;;18.70;41.10;;;;;;4943425;29;19910;-91
2021/04/18 11:56:29;;;;;;;;;;;18.80;40.70;;;;;;4942686;28;19917;-91
2021/04/18 11:58:55;;;;;;;;;;;18.90;40.50;;;;;;4944921;29;19961;-89
2021/04/18 12:01:20;;;;;;;;;;;18.90;40.10;;;;;;4942695;29;20009;-89
2021/04/18 12:03:46;;;;;;;;;;;19.00;40.30;;;;;;4940820;28;19926;-89
2021/04/18 12:06:11;;;;;;;;;;;19.10;40.30;;;;;;4941794;28;20434;-88
2021/04/18 12:08:37;;;;;;;;;;;19.20;40.00;;;;;;4946098;29;19918;-88
2021/04/18 12:11:03;;;;;;;;;;;19.30;39.90;;;;;;4945477;28;20057;-89
2021/04/18 12:13:29;;;;;;;;;;;19.40;39.90;;;;;;4941651;28;19914;-87
2021/04/18 12:15:54;;;;;;;;;;;19.40;39.70;;;;;;4934538;29;19915;-89
2021/04/18 12:18:20;;;;;;;;;;;19.40;39.40;;;;;;4933245;29;19938;-90
2021/04/18 12:20:45;;;;;;;;;;;19.40;39.20;;;;;;4940936;29;19911;-88
2021/04/18 12:23:10;;;;;;;;;;;19.40;39.40;;;;;;4934402;28;19911;-89
2021/04/18 12:25:36;;;;;;;;;;;19.40;39.10;;;;;;4946873;29;20361;-88
2021/04/18 12:28:01;;;;;;;;;;;19.40;38.90;;;;;;4934798;29;19911;-91
2021/04/18 12:30:27;;;;;;;;;;;19.40;38.80;;;;;;4931479;29;19919;-91
2021/04/18 12:32:52;;;;;;;;;;;19.40;38.00;;;;;;4938761;29;20433;-88
2021/04/18 12:35:18;;;;;;;;;;;19.30;38.30;;;;;;4932566;29;19922;-90
2021/04/18 12:37:44;;;;;;;;;;;19.00;37.40;;;;;;4933091;29;19954;-90
2021/04/18 12:40:10;;;;;;;;;;;18.90;38.00;;;;;;4933785;29;19910;-87
2021/04/18 12:42:35;;;;;;;;;;;18.90;38.30;;;;;;4925921;29;20334;-86
2021/04/18 12:45:02;;;;;;;;;;;19.10;38.40;;;;;;4932456;29;20017;-87
2021/04/18 12:47:28;;;;;;;;;;;19.10;38.00;;;;;;4934535;29;19917;-89
2021/04/18 12:49:55;;;;;;;;;;;19.10;38.00;;;;;;4931383;29;19926;-90
2021/04/18 12:52:22;;;;;;;;;;;19.10;38.10;;;;;;4938464;29;19911;-89
2021/04/18 12:54:47;;;;;;;;;;;19.30;38.40;;;;;;4934681;29;19945;-88
2021/04/18 12:57:16;;;;;;;;;;;19.60;38.10;;;;;;4931594;28;20805;-89
2021/04/18 12:59:43;;;;;;;;;;;19.70;36.50;;;;;;4930265;29;19915;-89
2021/04/18 13:02:09;;;;;;;;;;;19.60;36.30;;;;;;4942777;28;19965;-90
2021/04/18 13:04:34;;;;;;;;;;;19.70;36.70;;;;;;4939279;29;20009;-92
2021/04/18 13:07:02;;;;;;;;;;;19.60;35.50;;;;;;4932834;29;19995;-91
2021/04/18 13:09:28;;;;;;;;;;;19.50;36.20;;;;;;4934185;29;19968;-90
2021/04/18 13:12:00;;;;;;;;;;;19.40;36.00;;;;;;4935349;29;19970;-90
2021/04/18 13:14:26;;;;;;;;;;;19.20;36.10;;;;;;4938846;29;19950;-89
2021/04/18 13:16:51;;;;;;;;;;;19.20;36.60;;;;;;4935767;29;19962;-92
2021/04/18 13:19:17;;;;;;;;;;;19.20;36.70;;;;;;4936460;29;19911;-90
2021/04/18 13:21:42;;;;;;;;;;;19.10;36.90;;;;;;4933947;29;19910;-89
2021/04/18 13:24:08;;;;;;;;;;;19.00;37.30;;;;;;4934654;29;19918;-89
2021/04/18 13:26:33;;;;;;;;;;;18.90;37.80;;;;;;4935145;29;20102;-87
2021/04/18 13:28:59;;;;;;;;;;;18.80;38.20;;;;;;4935002;29;20289;-89
2021/04/18 13:31:25;;;;;;;;;;;18.70;38.50;;;;;;4936116;29;19961;-90
2021/04/18 13:33:50;;;;;;;;;;;18.80;38.80;;;;;;4945799;29;19910;-88
2021/04/18 13:36:16;;;;;;;;;;;18.80;38.90;;;;;;4932430;29;19907;-90
2021/04/18 13:38:41;;;;;;;;;;;18.90;38.90;;;;;;4932307;29;19918;-91
2021/04/18 13:41:07;;;;;;;;;;;19.10;38.90;;;;;;4953684;28;19914;-90
2021/04/18 13:43:32;;;;;;;;;;;19.30;38.80;;;;;;4927055;29;19954;-90
2021/04/18 13:45:58;;;;;;;;;;;19.70;38.40;;;;;;4938045;28;20044;-88
2021/04/18 13:48:24;;;;;;;;;;;20.00;37.90;;;;;;4942756;29;19942;-89
2021/04/18 13:50:50;;;;;;;;;;;20.20;37.60;;;;;;4934632;29;19922;-90
2021/04/18 13:53:15;;;;;;;;;;;20.30;36.90;;;;;;4933441;29;20005;-90
2021/04/18 13:55:41;;;;;;;;;;;20.30;36.40;;;;;;4932745;29;19931;-89
2021/04/18 13:58:06;;;;;;;;;;;20.10;36.30;;;;;;4932855;29;20358;-89
2021/04/18 14:00:32;;;;;;;;;;;19.90;36.50;;;;;;4931852;29;19918;-90
2021/04/18 14:02:57;;;;;;;;;;;19.80;36.80;;;;;;4933690;29;19955;-92
2021/04/18 14:05:23;;;;;;;;;;;19.70;36.70;;;;;;4929795;29;19941;-90
2021/04/18 14:07:48;;;;;;;;;;;19.60;37.00;;;;;;4939172;29;20009;-88
2021/04/18 14:10:14;;;;;;;;;;;19.60;37.10;;;;;;4940125;28;19917;-89
2021/04/18 14:12:40;;;;;;;;;;;19.60;37.30;;;;;;4931559;29;19926;-87
2021/04/18 14:15:06;;;;;;;;;;;19.60;37.30;;;;;;4929841;29;19965;-89
2021/04/18 14:17:32;;;;;;;;;;;19.60;36.50;;;;;;4935102;28;19911;-86